createdAt,value
2022-11-19T00:02:09.948Z,96473.97
2022-11-19T00:04:39.704Z,96498.09
2022-11-19T00:07:07.964Z,96499.63
2022-11-19T00:09:36.245Z,96514.50
2022-11-19T00:12:22.095Z,96510.81
2022-11-19T00:14:50.376Z,96433.25
2022-11-19T00:17:18.724Z,96514.13
2022-11-19T00:19:48.417Z,96513.25
2022-11-19T00:22:16.564Z,96520.41
2022-11-19T00:24:44.832Z,96521.47
2022-11-19T00:27:13.353Z,96518.13
2022-11-19T00:29:41.488Z,96506.22
2022-11-19T00:32:09.618Z,96496.91
2022-11-19T00:34:38.041Z,96523.97
2022-11-19T00:37:07.625Z,96511.94
2022-11-19T00:39:35.861Z,96526.22
2022-11-19T00:42:04.010Z,96531.69
2022-11-19T00:44:36.915Z,96535.09
2022-11-19T00:47:05.592Z,96544.13
2022-11-19T00:49:33.799Z,96426.81
2022-11-19T00:52:01.984Z,96530.91
2022-11-19T00:54:31.736Z,96543.75
2022-11-19T00:57:00.283Z,96542.75
2022-11-19T00:59:28.748Z,96521.19
2022-11-19T01:01:57.010Z,96539.66
2022-11-19T01:04:25.416Z,96550.66
2022-11-19T01:06:53.666Z,96520.31
2022-11-19T01:09:22.013Z,96523.59
2022-11-19T01:11:51.711Z,96543.13
2022-11-19T01:14:20.026Z,96544.91
2022-11-19T01:16:48.222Z,96559.00
2022-11-19T01:19:16.635Z,96550.38
2022-11-19T01:21:45.140Z,96553.69
2022-11-19T01:24:13.341Z,96564.81
2022-11-19T01:26:45.538Z,96567.50
2022-11-19T01:29:15.865Z,96552.88
2022-11-19T01:31:44.187Z,96563.81
2022-11-19T01:34:12.395Z,96570.09
2022-11-19T01:36:40.636Z,96563.00
2022-11-19T01:39:08.852Z,96573.47
2022-11-19T01:41:37.038Z,96577.00
2022-11-19T01:44:07.318Z,96586.38
2022-11-19T01:46:38.764Z,96590.84
2022-11-19T01:49:10.356Z,96586.25
2022-11-19T01:51:40.302Z,96588.19
2022-11-19T01:54:13.841Z,96593.94
2022-11-19T01:56:41.951Z,96588.00
2022-11-19T01:59:15.451Z,96550.06
2022-11-19T02:01:45.768Z,96596.38
2022-11-19T02:04:16.628Z,96581.03
2022-11-19T02:06:46.251Z,96595.53
2022-11-19T02:09:14.466Z,96594.63
2022-11-19T02:12:05.875Z,96594.75
2022-11-19T02:14:50.541Z,96595.69
2022-11-19T02:17:36.795Z,96599.25
2022-11-19T02:20:34.540Z,96606.22
2022-11-19T02:23:31.438Z,96610.47
2022-11-19T02:26:29.397Z,96601.75
2022-11-19T02:29:07.672Z,96611.50
2022-11-19T02:31:42.600Z,96613.13
2022-11-19T02:34:15.612Z,96576.41
2022-11-19T02:36:48.245Z,96606.34
2022-11-19T02:39:24.158Z,96609.88
2022-11-19T02:42:00.988Z,96609.00
2022-11-19T02:44:51.663Z,96606.50
2022-11-19T02:47:25.008Z,96607.59
2022-11-19T02:49:58.447Z,96610.09
2022-11-19T02:52:26.788Z,96616.13
2022-11-19T02:54:55.013Z,96615.25
2022-11-19T02:57:23.204Z,96620.44
2022-11-19T03:00:14.844Z,96594.47
2022-11-19T03:03:06.187Z,96645.56
2022-11-19T03:05:37.056Z,96627.66
2022-11-19T03:08:05.883Z,96624.41
2022-11-19T03:10:43.661Z,96430.44
2022-11-19T03:13:38.735Z,96652.75
2022-11-19T03:16:29.781Z,96656.00
2022-11-19T03:19:05.582Z,96603.28
2022-11-19T03:21:40.177Z,96669.00
2022-11-19T03:24:12.903Z,96672.41
2022-11-19T03:26:45.786Z,96672.41
2022-11-19T03:29:16.252Z,96648.50
2022-11-19T03:31:49.144Z,96674.06
2022-11-19T03:34:22.127Z,96672.97
2022-11-19T03:36:53.912Z,96580.78
2022-11-19T03:39:23.528Z,96680.78
2022-11-19T03:41:54.312Z,96648.44
2022-11-19T03:44:28.464Z,96680.88
2022-11-19T03:47:00.614Z,96592.94
2022-11-19T03:49:34.741Z,96703.31
2022-11-19T03:52:08.446Z,96690.31
2022-11-19T03:54:36.643Z,96698.16
2022-11-19T03:57:06.880Z,96685.97
2022-11-19T03:59:35.328Z,96705.91
2022-11-19T04:02:06.362Z,96693.72
2022-11-19T04:04:39.125Z,96685.91
2022-11-19T04:07:09.314Z,96684.22
2022-11-19T04:09:37.861Z,96696.22
2022-11-19T04:12:07.265Z,96668.81
2022-11-19T04:14:35.479Z,96607.03
2022-11-19T04:17:03.658Z,96692.50
2022-11-19T04:19:31.912Z,96683.75
2022-11-19T04:22:01.520Z,96684.50
2022-11-19T04:24:29.698Z,96684.44
2022-11-19T04:26:57.936Z,96690.50
2022-11-19T04:29:26.195Z,96669.84
2022-11-19T04:31:54.437Z,96657.72
2022-11-19T04:34:22.684Z,96685.97
2022-11-19T04:36:50.855Z,96685.94
2022-11-19T04:39:20.757Z,96688.47
2022-11-19T04:41:49.144Z,96681.84
2022-11-19T04:44:17.319Z,96705.03
2022-11-19T04:46:45.494Z,96687.31
2022-11-19T04:49:13.557Z,96715.28
2022-11-19T04:51:41.938Z,96644.56
2022-11-19T04:54:10.125Z,96741.31
2022-11-19T04:56:39.725Z,96727.97
2022-11-19T04:59:07.910Z,96742.41
2022-11-19T05:01:36.180Z,96749.47
2022-11-19T05:04:04.318Z,96745.22
2022-11-19T05:06:33.523Z,96753.13
2022-11-19T05:09:01.753Z,96746.38
2022-11-19T05:11:29.946Z,96699.78
2022-11-19T05:13:59.636Z,96762.09
2022-11-19T05:16:27.967Z,96752.22
2022-11-19T05:18:56.171Z,96758.13
2022-11-19T05:21:24.336Z,96761.72
2022-11-19T05:23:52.518Z,96765.91
2022-11-19T05:26:20.729Z,96769.44
2022-11-19T05:28:48.927Z,96781.63
2022-11-19T05:31:18.481Z,96761.88
2022-11-19T05:33:46.599Z,96790.19
2022-11-19T05:36:14.737Z,96786.84
2022-11-19T05:38:42.876Z,96781.78
2022-11-19T05:41:10.994Z,96789.53
2022-11-19T05:43:39.165Z,96787.78
2022-11-19T05:46:07.447Z,96802.25
2022-11-19T05:48:37.050Z,96801.34
2022-11-19T05:51:05.180Z,96806.59
2022-11-19T05:53:33.355Z,96813.56
2022-11-19T05:56:01.458Z,96813.56
2022-11-19T05:58:29.702Z,96816.19
2022-11-19T06:00:59.967Z,96818.72
2022-11-19T06:03:28.270Z,96817.75
2022-11-19T06:05:57.959Z,96824.63
2022-11-19T06:08:26.260Z,96832.38
2022-11-19T06:10:54.415Z,96830.53
2022-11-19T06:13:22.553Z,96845.19
2022-11-19T06:15:50.762Z,96836.44
2022-11-19T06:18:18.977Z,96849.38
2022-11-19T06:20:47.105Z,96845.88
2022-11-19T06:23:16.582Z,96854.50
2022-11-19T06:25:44.744Z,96862.31
2022-11-19T06:28:12.914Z,96869.25
2022-11-19T06:30:41.003Z,96868.41
2022-11-19T06:33:09.119Z,96871.84
2022-11-19T06:35:37.312Z,96878.81
2022-11-19T06:38:05.431Z,96881.38
2022-11-19T06:40:35.051Z,96883.03
2022-11-19T06:43:03.161Z,96885.63
2022-11-19T06:45:31.373Z,96864.84
2022-11-19T06:47:59.585Z,96895.00
2022-11-19T06:50:27.749Z,96888.09
2022-11-19T06:52:55.960Z,96901.06
2022-11-19T06:55:24.303Z,96901.94
2022-11-19T06:57:53.833Z,96903.84
2022-11-19T07:00:21.978Z,96916.09
2022-11-19T07:02:50.213Z,96915.38
2022-11-19T07:05:18.598Z,96925.81
2022-11-19T07:07:46.832Z,96924.06
2022-11-19T07:10:15.072Z,96894.34
2022-11-19T07:12:43.398Z,96932.00
2022-11-19T07:15:13.195Z,96937.19
2022-11-19T07:17:42.476Z,96933.63
2022-11-19T07:20:11.745Z,96939.56
2022-11-19T07:22:41.771Z,96943.78
2022-11-19T07:25:12.702Z,96940.34
2022-11-19T07:27:41.003Z,96949.00
2022-11-19T07:30:11.174Z,96929.25
2022-11-19T07:32:40.818Z,96949.81
2022-11-19T07:35:10.035Z,96851.53
2022-11-19T07:37:38.298Z,96814.06
2022-11-19T07:40:07.658Z,96960.25
2022-11-19T07:42:49.908Z,96970.56
2022-11-19T07:45:18.838Z,96976.88
2022-11-19T07:47:48.720Z,96970.94
2022-11-19T07:50:17.306Z,96988.34
2022-11-19T07:52:45.533Z,96971.94
2022-11-19T07:55:13.998Z,96942.31
2022-11-19T07:57:42.166Z,96978.97
2022-11-19T08:00:11.509Z,96987.72
2022-11-19T08:02:39.689Z,97004.16
2022-11-19T08:05:10.033Z,97001.81
2022-11-19T08:07:38.797Z,96999.41
2022-11-19T08:10:08.075Z,97005.66
2022-11-19T08:12:36.272Z,97001.44
2022-11-19T08:15:05.203Z,96993.91
2022-11-19T08:17:50.919Z,97012.97
2022-11-19T08:20:20.640Z,97016.50
2022-11-19T08:22:48.808Z,97015.66
2022-11-19T08:25:17.173Z,97014.94
2022-11-19T08:27:45.289Z,97026.19
2022-11-19T08:30:14.503Z,96901.31
2022-11-19T08:32:42.652Z,97021.28
2022-11-19T08:35:11.069Z,97022.22
2022-11-19T08:37:40.658Z,97028.25
2022-11-19T08:40:10.298Z,97034.44
2022-11-19T08:42:55.687Z,96989.09
2022-11-19T08:45:23.909Z,97039.69
2022-11-19T08:47:52.033Z,97042.34
2022-11-19T08:50:21.073Z,97048.44
2022-11-19T08:52:56.818Z,97049.25
2022-11-19T08:55:25.484Z,97051.09
2022-11-19T08:57:53.705Z,97051.94
2022-11-19T09:00:22.038Z,97056.31
2022-11-19T09:02:50.257Z,97057.19
2022-11-19T09:05:18.732Z,96910.78
2022-11-19T09:07:46.837Z,97060.75
2022-11-19T09:10:17.657Z,97033.44
2022-11-19T09:12:45.987Z,97042.84
2022-11-19T09:15:14.682Z,97075.66
2022-11-19T09:17:46.735Z,97081.81
2022-11-19T09:20:15.767Z,97075.91
2022-11-19T09:22:44.131Z,97070.06
2022-11-19T09:25:12.807Z,97090.66
2022-11-19T09:27:42.426Z,97095.13
2022-11-19T09:30:11.192Z,97084.00
2022-11-19T09:32:39.403Z,97091.75
2022-11-19T09:35:08.482Z,97094.22
2022-11-19T09:37:36.655Z,97107.97
2022-11-19T09:40:05.966Z,97111.47
2022-11-19T09:42:44.273Z,97109.78
2022-11-19T09:45:20.612Z,97114.88
2022-11-19T09:48:04.078Z,97025.69
2022-11-19T09:50:35.982Z,97079.69
2022-11-19T09:53:10.683Z,97099.34
2022-11-19T09:55:41.606Z,97087.34
2022-11-19T09:58:15.337Z,97088.19
2022-11-19T10:00:45.779Z,97108.75
2022-11-19T10:03:16.727Z,97098.50
2022-11-19T10:05:58.358Z,97095.19
2022-11-19T10:08:41.487Z,97108.06
2022-11-19T10:11:25.258Z,97071.03
2022-11-19T10:14:04.357Z,97058.22
2022-11-19T10:16:48.639Z,97104.56
2022-11-19T10:19:28.316Z,97097.75
2022-11-19T10:22:08.405Z,97107.47
2022-11-19T10:24:43.733Z,97033.97
2022-11-19T10:27:20.913Z,97114.59
2022-11-19T10:29:53.836Z,97120.75
2022-11-19T10:32:31.509Z,97119.88
2022-11-19T10:35:04.511Z,97124.13
2022-11-19T10:37:40.436Z,97120.75
2022-11-19T10:40:14.892Z,97119.84
2022-11-19T10:42:48.322Z,97124.19
2022-11-19T10:45:19.127Z,97137.19
2022-11-19T10:47:56.922Z,97093.25
2022-11-19T10:50:27.222Z,97120.75
2022-11-19T10:52:57.799Z,97118.16
2022-11-19T10:55:30.463Z,97128.53
2022-11-19T10:58:08.479Z,97115.44
2022-11-19T11:00:37.823Z,97115.41
2022-11-19T11:03:14.767Z,96679.00
2022-11-19T11:05:57.276Z,97092.19
2022-11-19T11:08:26.073Z,97103.31
2022-11-19T11:10:54.526Z,97106.00
2022-11-19T11:13:46.981Z,97102.59
2022-11-19T11:16:18.812Z,97105.28
2022-11-19T11:18:49.752Z,97077.69
2022-11-19T11:21:30.548Z,97099.13
2022-11-19T11:23:59.217Z,97087.94
2022-11-19T11:26:29.243Z,97093.09
2022-11-19T11:29:00.848Z,97058.63
2022-11-19T11:31:41.128Z,96902.59
2022-11-19T11:34:16.823Z,97079.09
2022-11-19T11:36:45.677Z,97069.69
2022-11-19T11:39:27.562Z,97059.44
2022-11-19T11:42:17.516Z,97078.31
2022-11-19T11:44:52.403Z,97072.28
2022-11-19T11:47:23.664Z,97073.13
2022-11-19T11:50:01.754Z,97079.88
2022-11-19T11:52:35.958Z,97013.78
2022-11-19T11:55:07.233Z,97071.31
2022-11-19T11:57:37.030Z,97073.94
2022-11-19T12:00:30.331Z,97046.53
2022-11-19T12:03:02.835Z,96900.78
2022-11-19T12:05:44.241Z,97069.91
2022-11-19T12:08:26.849Z,97070.78
2022-11-19T12:11:03.725Z,97071.59
2022-11-19T12:13:55.338Z,97074.06
2022-11-19T12:16:33.628Z,97053.47
2022-11-19T12:19:13.692Z,97065.41
2022-11-19T12:21:51.782Z,97069.78
2022-11-19T12:24:36.922Z,97070.59
2022-11-19T12:27:17.591Z,97065.31
2022-11-19T12:29:58.945Z,97068.78
2022-11-19T12:32:48.169Z,97069.59
2022-11-19T12:35:31.536Z,97071.28
2022-11-19T12:38:22.643Z,97072.16
2022-11-19T12:40:59.409Z,97079.97
2022-11-19T12:43:49.211Z,97073.97
2022-11-19T12:46:24.659Z,97065.31
2022-11-19T12:49:09.472Z,97063.56
2022-11-19T12:51:48.377Z,97069.56
2022-11-19T12:54:50.362Z,97043.88
2022-11-19T12:57:36.322Z,97055.06
2022-11-19T13:00:14.216Z,97062.81
2022-11-19T13:03:04.104Z,96698.53
2022-11-19T13:05:42.182Z,96997.56
2022-11-19T13:08:16.738Z,97054.19
2022-11-19T13:10:50.633Z,97041.47
2022-11-19T13:13:22.377Z,97045.94
2022-11-19T13:15:59.985Z,97060.53
2022-11-19T13:18:33.937Z,97056.22
2022-11-19T13:21:05.243Z,97061.47
2022-11-19T13:23:39.617Z,97058.06
2022-11-19T13:26:14.406Z,97053.75
2022-11-19T13:28:47.832Z,97055.50
2022-11-19T13:31:31.056Z,97032.34
2022-11-19T13:34:03.917Z,97043.50
2022-11-19T13:36:36.441Z,97055.66
2022-11-19T13:39:12.664Z,97055.72
2022-11-19T13:41:59.529Z,97054.00
2022-11-19T13:44:41.525Z,97056.56
2022-11-19T13:47:15.153Z,97042.03
2022-11-19T13:49:46.934Z,97063.53
2022-11-19T13:52:25.642Z,97066.19
2022-11-19T13:54:54.178Z,97009.53
2022-11-19T13:57:32.199Z,97041.22
2022-11-19T14:00:06.669Z,97065.25
2022-11-19T14:03:03.702Z,97067.06
2022-11-19T14:06:06.388Z,97064.53
2022-11-19T14:08:48.310Z,97069.78
2022-11-19T14:11:32.496Z,97074.13
2022-11-19T14:14:50.351Z,97049.19
2022-11-19T14:17:43.906Z,97073.25
2022-11-19T14:20:52.833Z,97068.88
2022-11-19T14:24:00.648Z,97064.44
2022-11-19T14:27:03.194Z,97073.91
2022-11-19T14:29:58.793Z,97069.53
2022-11-19T14:32:36.920Z,97074.66
2022-11-19T14:35:23.053Z,97077.19
2022-11-19T14:37:54.308Z,97029.09
2022-11-19T14:40:25.288Z,97071.91
2022-11-19T14:43:43.977Z,97074.53
2022-11-19T14:46:34.337Z,97065.38
2022-11-19T14:49:25.967Z,97086.00
2022-11-19T14:51:56.737Z,97089.50
2022-11-19T14:54:34.499Z,97087.75
2022-11-19T14:57:07.394Z,97091.22
2022-11-19T14:59:38.657Z,97086.06
2022-11-19T15:02:20.005Z,97079.09
2022-11-19T15:04:55.532Z,97078.25
2022-11-19T15:07:43.270Z,97076.59
2022-11-19T15:10:47.581Z,97073.09
2022-11-19T15:13:25.402Z,97064.41
2022-11-19T15:15:59.928Z,97029.25
2022-11-19T15:19:00.267Z,97054.94
2022-11-19T15:21:55.852Z,97060.81
2022-11-19T15:24:36.513Z,97063.34
2022-11-19T15:27:18.698Z,97074.59
2022-11-19T15:30:07.398Z,97057.47
2022-11-19T15:32:57.618Z,97076.31
2022-11-19T15:36:04.768Z,97090.00
2022-11-19T15:38:38.417Z,97092.66
2022-11-19T15:41:08.907Z,97068.72
2022-11-19T15:43:42.468Z,97103.94
2022-11-19T15:46:14.459Z,96880.97
2022-11-19T15:48:56.072Z,97122.16
2022-11-19T15:51:25.742Z,97088.69
2022-11-19T15:54:02.392Z,97129.97
2022-11-19T15:56:35.803Z,97127.41
2022-11-19T15:59:05.048Z,97057.84
2022-11-19T16:01:34.639Z,97123.22
2022-11-19T16:04:08.380Z,97139.56
2022-11-19T16:06:40.274Z,97086.34
2022-11-19T16:09:08.834Z,97142.22
2022-11-19T16:11:57.104Z,97149.13
2022-11-19T16:14:44.552Z,97153.44
2022-11-19T16:17:31.978Z,97159.44
2022-11-19T16:20:05.533Z,97138.03
2022-11-19T16:22:38.872Z,97157.00
2022-11-19T16:25:13.188Z,97160.41
2022-11-19T16:27:43.626Z,97182.03
2022-11-19T16:30:19.662Z,97151.94
2022-11-19T16:32:48.933Z,97161.44
2022-11-19T16:35:24.722Z,97153.75
2022-11-19T16:37:56.207Z,97157.25
2022-11-19T16:40:24.990Z,97154.69
2022-11-19T16:42:56.110Z,97165.09
2022-11-19T16:45:26.745Z,97169.44
2022-11-19T16:47:57.275Z,97171.19
2022-11-19T16:50:33.604Z,97172.13
2022-11-19T16:53:04.597Z,97172.13
2022-11-19T16:55:46.523Z,97164.31
2022-11-19T16:58:20.583Z,97146.28
2022-11-19T17:00:51.981Z,97157.50
2022-11-19T17:03:34.591Z,97169.63
2022-11-19T17:06:04.228Z,97196.41
2022-11-19T17:08:36.599Z,97166.19
2022-11-19T17:11:37.424Z,97156.66
2022-11-19T17:14:20.095Z,97166.16
2022-11-19T17:16:50.236Z,97106.84
2022-11-19T17:19:26.765Z,97166.16
2022-11-19T17:21:59.292Z,97170.47
2022-11-19T17:24:32.954Z,97146.41
2022-11-19T17:27:01.445Z,97158.44
2022-11-19T17:29:29.716Z,97156.75
2022-11-19T17:31:58.249Z,97167.09
2022-11-19T17:34:32.701Z,97165.38
2022-11-19T17:37:01.247Z,97153.31
2022-11-19T17:39:30.901Z,97129.25
2022-11-19T17:42:16.397Z,97156.78
2022-11-19T17:44:44.576Z,97153.34
2022-11-19T17:47:24.088Z,97145.56
2022-11-19T17:49:53.494Z,97151.56
2022-11-19T17:52:24.212Z,97151.56
2022-11-19T17:54:56.317Z,97144.66
2022-11-19T17:57:24.452Z,97118.06
2022-11-19T17:59:52.639Z,97100.84
2022-11-19T18:02:22.225Z,97151.56
2022-11-19T18:04:50.651Z,97150.75
2022-11-19T18:07:19.134Z,97160.25
2022-11-19T18:09:47.450Z,97153.38
2022-11-19T18:12:20.087Z,97156.84
2022-11-19T18:14:48.613Z,97160.31
2022-11-19T18:17:17.161Z,97163.78
2022-11-19T18:19:45.493Z,97157.78
2022-11-19T18:22:18.508Z,97163.81
2022-11-19T18:24:48.663Z,97069.22
2022-11-19T18:27:19.050Z,97164.66
2022-11-19T18:29:47.348Z,97168.06
2022-11-19T18:32:17.209Z,97153.56
2022-11-19T18:34:46.878Z,97066.72
2022-11-19T18:37:15.376Z,97142.38
2022-11-19T18:39:43.572Z,97138.03
2022-11-19T18:42:13.006Z,97163.81
2022-11-19T18:44:43.689Z,97147.50
2022-11-19T18:47:14.739Z,97153.44
2022-11-19T18:49:42.965Z,97144.00
2022-11-19T18:52:15.149Z,97154.31
2022-11-19T18:54:43.413Z,97143.97
2022-11-19T18:57:12.943Z,97156.84
2022-11-19T18:59:42.792Z,97143.09
2022-11-19T19:02:11.956Z,97116.44
2022-11-19T19:04:40.221Z,97157.66
2022-11-19T19:07:08.561Z,97154.22
2022-11-19T19:09:37.556Z,97112.06
2022-11-19T19:12:21.821Z,97153.28
2022-11-19T19:14:52.063Z,96951.38
2022-11-19T19:17:20.701Z,97089.75
2022-11-19T19:19:49.869Z,97085.47
2022-11-19T19:22:18.486Z,97129.28
2022-11-19T19:24:47.218Z,97138.72
2022-11-19T19:27:16.172Z,97137.03
2022-11-19T19:29:44.593Z,97104.34
2022-11-19T19:32:14.329Z,97135.31
2022-11-19T19:34:42.477Z,97161.13
2022-11-19T19:37:10.698Z,97159.47
2022-11-19T19:39:39.113Z,97137.97
2022-11-19T19:42:07.575Z,97145.75
2022-11-19T19:44:36.043Z,97157.00
2022-11-19T19:47:04.424Z,97111.44
2022-11-19T19:49:38.635Z,97184.53
2022-11-19T19:52:07.471Z,97154.44
2022-11-19T19:54:35.742Z,97182.81
2022-11-19T19:57:03.883Z,97166.50
2022-11-19T19:59:32.177Z,97171.66
2022-11-19T20:02:00.446Z,97187.13
2022-11-19T20:04:28.703Z,97193.19
2022-11-19T20:06:58.448Z,97188.84
2022-11-19T20:09:27.044Z,97192.28
2022-11-19T20:11:55.766Z,97054.69
2022-11-19T20:14:24.036Z,97188.84
2022-11-19T20:16:52.232Z,97187.97
2022-11-19T20:19:20.811Z,97181.97
2022-11-19T20:21:49.298Z,97184.53
2022-11-19T20:24:20.211Z,97168.19
2022-11-19T20:26:48.433Z,97187.13
2022-11-19T20:29:17.824Z,97177.69
2022-11-19T20:31:48.038Z,97170.81
2022-11-19T20:34:17.471Z,97145.88
2022-11-19T20:36:45.974Z,97191.44
2022-11-19T20:39:14.256Z,97201.78
2022-11-19T20:42:01.248Z,97209.56
2022-11-19T20:44:29.465Z,97219.00
2022-11-19T20:46:59.245Z,97198.38
2022-11-19T20:49:29.359Z,97182.03
2022-11-19T20:51:58.253Z,97079.66
2022-11-19T20:54:27.373Z,97186.34
2022-11-19T20:56:57.797Z,97233.69
2022-11-19T20:59:27.113Z,97188.06
2022-11-19T21:01:56.467Z,97223.34
2022-11-19T21:04:26.244Z,97108.06
2022-11-19T21:06:54.942Z,97241.44
2022-11-19T21:09:23.513Z,97207.84
2022-11-19T21:11:52.116Z,97226.78
2022-11-19T21:14:21.763Z,97223.34
2022-11-19T21:16:49.948Z,97225.06
2022-11-19T21:19:18.308Z,97169.97
2022-11-19T21:21:46.718Z,97194.94
2022-11-19T21:24:14.911Z,97225.94
2022-11-19T21:26:43.424Z,97225.91
2022-11-19T21:29:11.651Z,97231.09
2022-11-19T21:31:42.553Z,97210.44
2022-11-19T21:34:12.452Z,97097.69
2022-11-19T21:36:42.003Z,97229.38
2022-11-19T21:39:10.966Z,97212.16
2022-11-19T21:41:39.653Z,97211.28
2022-11-19T21:44:08.293Z,97233.69
2022-11-19T21:46:36.852Z,97235.41
2022-11-19T21:49:06.642Z,97231.97
2022-11-19T21:51:35.043Z,97208.69
2022-11-19T21:54:03.301Z,97227.63
2022-11-19T21:56:37.108Z,97231.97
2022-11-19T21:59:07.025Z,97226.78
2022-11-19T22:01:35.443Z,97223.34
2022-11-19T22:04:03.972Z,97223.34
2022-11-19T22:06:33.832Z,97216.47
2022-11-19T22:09:02.122Z,97219.03
2022-11-19T22:11:30.773Z,97207.84
2022-11-19T22:14:01.528Z,97213.88
2022-11-19T22:16:30.539Z,97207.84
2022-11-19T22:18:58.858Z,97218.19
2022-11-19T22:21:29.211Z,97201.81
2022-11-19T22:23:58.933Z,97179.44
2022-11-19T22:26:27.443Z,97199.25
2022-11-19T22:28:56.013Z,97196.69
2022-11-19T22:31:24.723Z,97190.66
2022-11-19T22:33:54.042Z,97211.28
2022-11-19T22:36:23.782Z,97179.44
2022-11-19T22:38:52.627Z,97112.34
2022-11-19T22:41:22.930Z,97176.84
2022-11-19T22:43:52.074Z,97174.28
2022-11-19T22:46:20.725Z,97148.47
2022-11-19T22:48:49.497Z,97169.97
2022-11-19T22:51:21.337Z,97166.50
2022-11-19T22:53:49.798Z,97114.03
2022-11-19T22:56:19.994Z,97166.50
2022-11-19T22:58:50.411Z,97107.19
2022-11-19T23:01:20.258Z,97151.03
2022-11-19T23:03:48.803Z,97145.88
2022-11-19T23:06:17.021Z,97137.25
2022-11-19T23:08:45.867Z,97122.59
2022-11-19T23:11:15.909Z,97117.44
2022-11-19T23:13:44.873Z,97133.75
2022-11-19T23:16:15.949Z,97058.09
2022-11-19T23:18:48.589Z,97122.56
2022-11-19T23:21:19.343Z,97069.25
2022-11-19T23:23:47.821Z,97126.88
2022-11-19T23:26:16.916Z,97122.53
2022-11-19T23:28:45.737Z,97128.59
2022-11-19T23:31:18.957Z,96938.66
2022-11-19T23:33:48.103Z,97117.34
2022-11-19T23:36:17.774Z,97058.03
2022-11-19T23:38:46.361Z,97092.41
2022-11-19T23:41:17.046Z,97114.78
2022-11-19T23:43:45.818Z,97103.59
2022-11-19T23:46:16.992Z,96997.88
2022-11-19T23:48:47.143Z,97057.16
2022-11-19T23:51:17.176Z,97102.72
2022-11-19T23:53:46.324Z,97094.09
2022-11-19T23:56:16.146Z,97050.28
2022-11-19T23:58:44.637Z,97088.03
